首页
METAR-TAF:

METAR-TAF

机场 :

費耶特維爾, 北卡罗来纳州, 美国

纬度: 34-59-22N, 经度: 078-52-48W, 海拔: 57米

当前天气观测

该预报发布于57分钟前的07:53 UTC
风速10节,风向南转西南
温度 22°C
湿度 69%
气压 1014 hPa
能見度: 16.1公里
天空无云

METAR: KFAY 290753Z 20010KT 10SM CLR 22/16 A2994 RMK AO2 SLP132 T02170161

时间: 04:50 (08:50 UTC)

预报

该预报发布于3小时和30分钟前的05:20 UTC
预报有效从29日的 06点(UTC)到 30日的 06点(UTC)
风速10节,风向南转西南
能見度: 10公里
散云层高于25000英尺
从 29日的 1500点(UTC)
风速14节,风向西南,有时为26节阵风
能見度: 10公里
少量云层高于4000英尺
多云层高于25000英尺
从 29日的 2300点(UTC)
风速9节,风向西转西南
能見度: 10公里
少量云层高于6000英尺
多云层高于25000英尺

TAF: KFAY 290520Z 2906/3006 20010KT P6SM SCT250 FM291500 23014G26KT P6SM FEW040 BKN250 FM292300 24009KT P6SM FEW060 BKN250

超过4000个机场的气象观测和天气预报(METAR&TAF报告)。

可查询的气象台以黄色和红色小点在地图上表示。

将鼠标移到小点上方,可查看气象台名称。

然后点击查看天气观测和预报。

如需切换地图:点击带黑十字的绿色按钮放大地图;点击带横线的绿色按钮缩小地图;或者点击绿色箭头查看邻近地区的地图。


METAR-TAF: